Terminal Aerodrome Forecast
Issued by NWS

Home | Current Version | Previous Version | Text Only | Print | Product List | Glossary On
Versions: 1 2 3 4 5 6 7 8 9 10 11 12 13 14 15
000
FTUS43 KIWX 302341
TAFSBN
TAF
KSBN 302341Z 3100/3124 17004KT P6SM SCT040 BKN100
     FM310800 31003KT 4SM BR BKN050
     FM311400 36011KT P6SM BKN040=

USA.gov is the U.S. government's official web portal to all federal, state and local government web resources and services.